Time;durP1;ratioP1;P1;durP2;ratioP2;P2;SDS_P1;SDS_P2;PMS_P1;PMS_P2;Temp;Humidity;BMP_temperature;BMP_pressure;BME280_temperature;BME280_humidity;BME280_pressure;Samples;Min_cycle;Max_cycle;Signal;HPM_P1;HPM_P2
2022/01/19 00:00:46;;;;;;;0.30;0.30;;;5.60;99.90;;;;;;5037057;28;20467;-88
2022/01/19 00:03:11;;;;;;;0.32;0.32;;;5.50;99.90;;;;;;5053973;28;20099;-88
2022/01/19 00:05:38;;;;;;;0.95;0.30;;;6.20;99.90;;;;;;5053928;28;20041;-88
2022/01/19 00:08:04;;;;;;;0.45;0.45;;;5.70;99.90;;;;;;5037724;28;20044;-88
2022/01/19 00:10:30;;;;;;;0.00;0.00;;;5.50;99.90;;;;;;5037417;28;20451;-88
2022/01/19 00:12:57;;;;;;;0.20;0.20;;;5.50;99.90;;;;;;5037178;28;20052;-88
2022/01/19 00:15:24;;;;;;;0.00;0.00;;;5.50;99.90;;;;;;5037290;28;20102;-88
2022/01/19 00:17:56;;;;;;;0.35;0.05;;;5.40;99.90;;;;;;5054052;28;20091;-88
2022/01/19 00:20:22;;;;;;;3.20;0.90;;;5.60;99.90;;;;;;5053908;28;20049;-87
2022/01/19 00:22:49;;;;;;;2.55;0.35;;;5.70;99.90;;;;;;5036985;28;20432;-88
2022/01/19 00:25:14;;;;;;;0.20;0.20;;;5.50;99.90;;;;;;5053580;28;20128;-88
2022/01/19 00:27:40;;;;;;;4.38;0.82;;;5.50;99.90;;;;;;5053813;28;20128;-88
2022/01/19 00:30:07;;;;;;;0.05;0.05;;;5.60;99.90;;;;;;5053596;28;20048;-88
2022/01/19 00:32:33;;;;;;;0.20;0.13;;;5.40;99.90;;;;;;5036889;28;20488;-88
2022/01/19 00:34:59;;;;;;;0.82;0.82;;;5.10;99.90;;;;;;5037377;28;20045;-88
2022/01/19 00:37:26;;;;;;;0.40;0.20;;;5.40;99.90;;;;;;5037002;28;20111;-88
2022/01/19 00:39:52;;;;;;;0.00;0.00;;;5.40;99.90;;;;;;5037074;28;20052;-88
2022/01/19 00:42:18;;;;;;;0.05;0.00;;;6.10;99.90;;;;;;5053915;28;20049;-87
2022/01/19 00:44:44;;;;;;;0.35;0.10;;;5.30;99.90;;;;;;5037020;28;20077;-88
2022/01/19 00:47:10;;;;;;;0.13;0.13;;;5.30;99.90;;;;;;5036811;28;20084;-88
2022/01/19 00:49:36;;;;;;;0.60;0.20;;;5.30;99.90;;;;;;5036670;28;20052;-88
2022/01/19 00:52:02;;;;;;;0.00;0.00;;;5.20;99.90;;;;;;5053297;28;20052;-88
2022/01/19 00:54:28;;;;;;;0.52;0.30;;;5.20;99.90;;;;;;5036365;28;20044;-88
2022/01/19 00:56:54;;;;;;;0.63;0.00;;;5.20;99.90;;;;;;5036625;28;20056;-88
2022/01/19 00:59:19;;;;;;;0.20;0.17;;;5.00;99.90;;;;;;5053434;28;20459;-88
2022/01/19 01:01:45;;;;;;;0.00;0.00;;;5.20;99.90;;;;;;5052840;28;20131;-87
2022/01/19 01:04:11;;;;;;;0.17;0.17;;;5.20;99.90;;;;;;5053352;28;20115;-88
2022/01/19 01:06:37;;;;;;;0.10;0.10;;;4.90;99.90;;;;;;5035966;28;20043;-88
2022/01/19 01:09:03;;;;;;;0.15;0.03;;;4.80;99.90;;;;;;5052982;28;20084;-88
2022/01/19 01:11:34;;;;;;;0.00;0.00;;;4.80;99.90;;;;;;5052106;28;20443;-88
2022/01/19 01:16:38;;;;;;;0.10;0.10;;;4.60;99.90;;;;;;5052621;28;20099;-88
2022/01/19 01:19:10;;;;;;;0.00;0.00;;;5.40;99.90;;;;;;5036364;28;20049;-88
2022/01/19 01:21:36;;;;;;;0.15;0.15;;;4.50;99.90;;;;;;5052635;28;20044;-87
2022/01/19 01:24:03;;;;;;;0.95;0.00;;;4.50;99.90;;;;;;5053041;28;20393;-88
2022/01/19 01:26:29;;;;;;;0.00;0.00;;;4.40;99.90;;;;;;5052504;28;20106;-88
2022/01/19 01:28:55;;;;;;;0.00;0.00;;;4.60;99.90;;;;;;5052690;28;20037;-89
2022/01/19 01:31:21;;;;;;;0.20;0.20;;;4.40;99.90;;;;;;5035788;28;20113;-88
2022/01/19 01:33:47;;;;;;;6.68;0.22;;;4.20;99.90;;;;;;5053068;28;20048;-88
2022/01/19 01:36:12;;;;;;;0.08;0.08;;;4.10;99.90;;;;;;5036475;28;20458;-88
2022/01/19 01:38:38;;;;;;;0.25;0.25;;;4.10;99.90;;;;;;5053360;28;20607;-88
2022/01/19 01:41:05;;;;;;;0.20;0.20;;;4.40;99.90;;;;;;5036072;28;20049;-88
2022/01/19 01:43:31;;;;;;;0.20;0.20;;;4.00;99.90;;;;;;5035854;28;20040;-88
2022/01/19 01:46:03;;;;;;;0.25;0.10;;;3.80;99.90;;;;;;5052278;28;20052;-88
2022/01/19 01:48:29;;;;;;;0.10;0.00;;;3.80;99.90;;;;;;5053166;28;20053;-88
2022/01/19 01:53:39;;;;;;;0.60;0.45;;;4.00;99.90;;;;;;5052518;28;20048;-88
2022/01/19 01:56:13;;;;;;;0.10;0.10;;;3.90;99.90;;;;;;5035904;28;20099;-88
2022/01/19 01:58:48;;;;;;;0.32;0.32;;;3.80;99.90;;;;;;5036513;28;20048;-88
2022/01/19 02:01:14;;;;;;;;;;;3.80;99.90;;;;;;5036531;28;20432;-87
2022/01/19 02:03:42;;;;;;;2.28;0.20;;;3.80;99.90;;;;;;5035824;28;19920;-88
2022/01/19 02:08:54;;;;;;;0.45;0.45;;;3.80;99.90;;;;;;5052705;28;20059;-88
2022/01/19 02:23:00;;;;;;;0.57;0.43;;;3.80;99.90;;;;;;5054330;28;20063;-88
2022/01/19 02:25:29;;;;;;;0.75;0.43;;;3.80;99.90;;;;;;5056092;28;20060;-88
2022/01/19 02:41:43;;;;;;;0.00;0.00;;;3.80;99.90;;;;;;4999557;28;20104;-87
2022/01/19 02:44:12;;;;;;;1.23;0.20;;;3.80;99.90;;;;;;4998869;28;20139;-88
2022/01/19 02:49:16;;;;;;;1.55;0.20;;;3.80;99.90;;;;;;4999430;28;20092;-88
2022/01/19 02:51:44;;;;;;;0.00;0.00;;;3.80;99.90;;;;;;4999223;28;20514;-87
2022/01/19 02:54:14;;;;;;;0.10;0.10;;;3.80;99.90;;;;;;4998777;28;20046;-88
2022/01/19 02:56:43;;;;;;;0.88;0.05;;;3.80;99.90;;;;;;4998979;28;20054;-88
2022/01/19 02:59:28;;;;;;;1.55;1.45;;;3.80;99.90;;;;;;4998732;28;20053;-88
2022/01/19 03:10:07;;;;;;;0.20;0.20;;;3.60;99.90;;;;;;4998374;28;20057;-88
2022/01/19 03:12:33;;;;;;;0.00;0.00;;;3.50;99.90;;;;;;4997916;28;20046;-88
2022/01/19 03:14:58;;;;;;;0.15;0.13;;;3.40;99.90;;;;;;5002883;28;20107;-88
2022/01/19 03:17:24;;;;;;;0.38;0.03;;;3.30;99.90;;;;;;5038165;28;20477;-87
2022/01/19 03:19:50;;;;;;;0.20;0.20;;;3.30;99.90;;;;;;5038475;28;20049;-88
2022/01/19 03:22:18;;;;;;;0.00;0.00;;;3.60;99.90;;;;;;5038680;28;20099;-88
2022/01/19 03:24:51;;;;;;;0.32;0.10;;;3.20;99.90;;;;;;5038991;28;20056;-88
2022/01/19 03:27:17;;;;;;;0.00;0.00;;;3.10;99.90;;;;;;5039123;28;20095;-87
2022/01/19 03:29:43;;;;;;;0.10;0.10;;;3.00;99.90;;;;;;5038701;28;20558;-88
2022/01/19 03:32:10;;;;;;;0.00;0.00;;;2.90;99.90;;;;;;5054650;28;20045;-88
2022/01/19 03:34:36;;;;;;;0.17;0.17;;;3.10;99.90;;;;;;5053784;28;20060;-88
2022/01/19 03:37:03;;;;;;;0.00;0.00;;;2.70;99.90;;;;;;5055148;28;20041;-88
2022/01/19 03:39:30;;;;;;;2.28;0.25;;;2.80;99.90;;;;;;5038040;28;20049;-88
2022/01/19 03:41:56;;;;;;;0.00;0.00;;;2.70;99.90;;;;;;5038514;28;20232;-89
2022/01/19 03:44:21;;;;;;;0.00;0.00;;;3.70;99.90;;;;;;5054650;28;20485;-88
2022/01/19 03:47:20;;;;;;;0.00;0.00;;;2.70;99.90;;;;;;5037917;28;20049;-88
2022/01/19 03:49:39;;;;;;;0.00;0.00;;;2.60;99.90;;;;;;5051396;28;20045;-88
2022/01/19 03:52:06;;;;;;;0.05;0.05;;;2.80;99.90;;;;;;5038074;28;20045;-88
2022/01/19 03:54:38;;;;;;;1.00;0.20;;;2.60;99.90;;;;;;5037869;28;20049;-88
2022/01/19 03:57:04;;;;;;;0.05;0.00;;;2.60;99.90;;;;;;5037866;28;20400;-88
2022/01/19 03:59:30;;;;;;;1.55;0.10;;;2.50;99.90;;;;;;5038346;28;20045;-88
2022/01/19 04:01:57;;;;;;;0.00;0.00;;;2.50;99.90;;;;;;5054519;28;20475;-88
2022/01/19 04:07:00;;;;;;;0.00;0.00;;;2.60;99.90;;;;;;5054152;28;20098;-88
2022/01/19 04:09:27;;;;;;;0.05;0.05;;;2.50;99.90;;;;;;5037758;28;20397;-88
2022/01/19 04:11:53;;;;;;;0.00;0.00;;;2.40;99.90;;;;;;5054143;28;20476;-88
2022/01/19 04:14:22;;;;;;;0.00;0.00;;;2.30;99.90;;;;;;5037519;28;20141;-88
2022/01/19 04:16:49;;;;;;;0.00;0.00;;;2.40;99.90;;;;;;5037504;28;20132;-88
2022/01/19 04:19:41;;;;;;;0.00;0.00;;;2.40;99.90;;;;;;5037593;28;20423;-88
2022/01/19 04:22:09;;;;;;;0.00;0.00;;;2.50;99.90;;;;;;5054383;28;20114;-88
2022/01/19 04:24:36;;;;;;;0.00;0.00;;;2.40;99.90;;;;;;5037657;28;20049;-88
2022/01/19 04:29:50;;;;;;;1.00;0.88;;;2.40;99.90;;;;;;5054123;28;20397;-88
2022/01/19 04:32:20;;;;;;;0.20;0.00;;;2.30;99.90;;;;;;5037138;28;20068;-88
2022/01/19 04:34:49;;;;;;;0.00;0.00;;;2.20;99.90;;;;;;5054673;28;20500;-88
2022/01/19 05:04:25;;;;;;;0.00;0.00;;;1.80;99.90;;;;;;4996698;28;20053;-88
2022/01/19 05:07:03;;;;;;;0.40;0.28;;;1.80;99.90;;;;;;4996288;28;20501;-88
2022/01/19 05:14:45;;;;;;;0.00;0.00;;;1.80;99.90;;;;;;4995933;28;20136;-88
2022/01/19 05:17:11;;;;;;;0.00;0.00;;;1.80;99.90;;;;;;4980498;28;20042;-89
2022/01/19 05:19:37;;;;;;;0.00;0.00;;;1.80;99.90;;;;;;4996308;28;20257;-89
2022/01/19 05:22:03;;;;;;;0.00;0.00;;;1.80;99.90;;;;;;5025189;28;20103;-89
2022/01/19 05:24:29;;;;;;;0.00;0.00;;;1.80;99.90;;;;;;5052864;28;20615;-88
2022/01/19 05:26:55;;;;;;;0.00;0.00;;;1.80;99.90;;;;;;5035921;28;20071;-89
2022/01/19 05:29:20;;;;;;;0.00;0.00;;;1.80;99.90;;;;;;5053868;28;20045;-89
2022/01/19 05:31:46;;;;;;;0.10;0.10;;;1.80;99.90;;;;;;5036745;28;20139;-89
2022/01/19 05:34:12;;;;;;;0.10;0.10;;;2.20;99.90;;;;;;5036566;28;20045;-89
2022/01/19 05:36:38;;;;;;;0.00;0.00;;;1.90;99.90;;;;;;5036647;28;20040;-89
2022/01/19 05:39:05;;;;;;;0.00;0.00;;;3.30;99.90;;;;;;5052792;28;20131;-89
2022/01/19 05:41:32;;;;;;;0.17;0.00;;;1.90;99.90;;;;;;5036470;28;20135;-88
2022/01/19 05:43:58;;;;;;;0.00;0.00;;;1.90;99.90;;;;;;5053859;28;20106;-89
2022/01/19 05:46:23;;;;;;;0.00;0.00;;;1.90;99.90;;;;;;5035970;28;20041;-88
2022/01/19 05:48:49;;;;;;;0.00;0.00;;;2.10;99.90;;;;;;5036553;28;20049;-90
2022/01/19 05:51:15;;;;;;;4.47;0.38;;;2.30;99.90;;;;;;5036235;28;20037;-89
2022/01/19 05:53:41;;;;;;;0.00;0.00;;;1.90;99.90;;;;;;5053536;28;20056;-89
2022/01/19 05:56:07;;;;;;;0.73;0.50;;;1.90;99.90;;;;;;5036592;28;20059;-89
2022/01/19 05:58:33;;;;;;;0.00;0.00;;;2.00;99.90;;;;;;5055642;28;20132;-89
2022/01/19 06:00:59;;;;;;;0.00;0.00;;;2.20;99.90;;;;;;5056738;28;20045;-89
2022/01/19 06:03:25;;;;;;;0.00;0.00;;;1.90;99.90;;;;;;5056809;28;20457;-89
2022/01/19 06:05:50;;;;;;;0.47;0.28;;;1.90;99.90;;;;;;5056600;28;20447;-89
2022/01/19 06:10:54;;;;;;;0.05;0.00;;;1.90;99.90;;;;;;5056980;28;20103;-89
2022/01/19 06:13:20;;;;;;;0.00;0.00;;;1.90;99.90;;;;;;5056808;28;20075;-88
2022/01/19 06:15:47;;;;;;;0.30;0.30;;;2.20;99.90;;;;;;5039686;28;20056;-88
2022/01/19 06:18:14;;;;;;;0.20;0.17;;;1.90;99.90;;;;;;5039025;28;20084;-87
2022/01/19 06:20:40;;;;;;;0.00;0.00;;;1.90;99.90;;;;;;5055848;28;20052;-88
2022/01/19 06:23:06;;;;;;;0.22;0.22;;;1.90;99.90;;;;;;5039913;28;20130;-88
2022/01/19 06:25:32;;;;;;;0.10;0.10;;;1.90;99.90;;;;;;5056192;28;20052;-89
2022/01/19 06:27:59;;;;;;;0.90;0.45;;;2.00;99.90;;;;;;5056416;28;20060;-89
2022/01/19 06:30:25;;;;;;;0.00;0.00;;;1.90;99.90;;;;;;5056126;28;20131;-89
2022/01/19 06:32:51;;;;;;;0.00;0.00;;;2.00;99.90;;;;;;5039504;28;20053;-89
2022/01/19 06:35:17;;;;;;;0.00;0.00;;;2.10;99.90;;;;;;5055995;28;20053;-89
2022/01/19 06:37:42;;;;;;;0.00;0.00;;;2.00;99.90;;;;;;5039596;28;20041;-89
2022/01/19 06:40:11;;;;;;;0.10;0.10;;;2.00;99.90;;;;;;5039168;28;20064;-89
2022/01/19 06:42:36;;;;;;;0.35;0.35;;;2.00;99.90;;;;;;5039495;28;20370;-89
2022/01/19 06:45:04;;;;;;;1.45;0.28;;;2.00;99.90;;;;;;5039320;28;20055;-89
2022/01/19 06:47:30;;;;;;;0.15;0.15;;;2.10;99.90;;;;;;5055983;28;20053;-89
2022/01/19 06:49:55;;;;;;;0.00;0.00;;;2.20;99.90;;;;;;5039113;28;20045;-89
2022/01/19 06:52:21;;;;;;;1.35;0.80;;;2.50;99.90;;;;;;5039799;28;20103;-89
2022/01/19 06:54:47;;;;;;;0.98;0.57;;;2.20;99.90;;;;;;5039363;28;20098;-89
2022/01/19 06:57:12;;;;;;;0.00;0.00;;;2.30;99.90;;;;;;5039375;28;20045;-89
2022/01/19 06:59:39;;;;;;;0.10;0.10;;;2.40;99.90;;;;;;5039214;28;20052;-89
2022/01/19 07:02:05;;;;;;;0.30;0.30;;;2.40;99.90;;;;;;5038966;28;20582;-89
2022/01/19 07:04:32;;;;;;;0.00;0.00;;;2.60;99.90;;;;;;5055107;28;20041;-89
2022/01/19 07:06:57;;;;;;;6.47;1.17;;;2.60;99.90;;;;;;5038639;28;20048;-89
2022/01/19 07:09:23;;;;;;;0.00;0.00;;;2.70;99.90;;;;;;5039227;28;20044;-89
2022/01/19 07:11:50;;;;;;;0.65;0.47;;;2.80;99.90;;;;;;5039065;28;20049;-89
2022/01/19 07:14:17;;;;;;;0.00;0.00;;;2.90;99.90;;;;;;5055286;28;20065;-89
2022/01/19 07:16:44;;;;;;;0.30;0.30;;;2.80;99.90;;;;;;5055096;28;20110;-88
2022/01/19 07:19:12;;;;;;;0.03;0.00;;;2.90;99.90;;;;;;5038956;28;20057;-89
2022/01/19 07:21:38;;;;;;;0.75;0.52;;;2.90;99.90;;;;;;5054904;28;20396;-88
2022/01/19 07:24:04;;;;;;;0.43;0.43;;;3.10;99.90;;;;;;5055060;28;20040;-89
2022/01/19 07:26:29;;;;;;;0.00;0.00;;;2.90;99.90;;;;;;5038364;28;20113;-89
2022/01/19 07:28:55;;;;;;;1.08;0.30;;;3.00;99.90;;;;;;5054991;28;20087;-89
2022/01/19 07:31:21;;;;;;;0.20;0.17;;;2.90;99.90;;;;;;5054759;28;20095;-89
2022/01/19 07:33:47;;;;;;;1.10;0.13;;;3.30;99.90;;;;;;5055320;28;20049;-89
2022/01/19 07:36:15;;;;;;;0.30;0.10;;;2.90;99.90;;;;;;5038351;28;20040;-89
2022/01/19 07:38:41;;;;;;;0.03;0.00;;;2.90;99.90;;;;;;5054796;28;20056;-89
2022/01/19 07:41:07;;;;;;;0.40;0.17;;;2.90;99.90;;;;;;5038087;28;20135;-87
2022/01/19 07:43:33;;;;;;;0.30;0.30;;;3.00;99.90;;;;;;5037997;28;20044;-88
2022/01/19 07:45:58;;;;;;;0.38;0.38;;;3.00;99.90;;;;;;5054378;28;20132;-89
2022/01/19 07:48:24;;;;;;;0.20;0.20;;;3.00;99.90;;;;;;5054193;28;20527;-89
2022/01/19 07:50:50;;;;;;;0.28;0.28;;;3.10;99.90;;;;;;5038121;28;20056;-89
2022/01/19 07:53:15;;;;;;;0.55;0.55;;;3.10;99.90;;;;;;5038334;28;20455;-89
2022/01/19 07:55:42;;;;;;;0.73;0.30;;;3.10;99.90;;;;;;5054231;28;20041;-89
2022/01/19 07:58:09;;;;;;;0.38;0.10;;;3.10;99.90;;;;;;5054096;28;20045;-88
2022/01/19 08:00:38;;;;;;;0.10;0.10;;;3.30;99.90;;;;;;5053880;28;20052;-87
2022/01/19 08:03:04;;;;;;;1.48;0.30;;;3.40;99.90;;;;;;5038559;28;20083;-87
2022/01/19 08:05:30;;;;;;;0.52;0.30;;;3.20;99.90;;;;;;5037642;28;20049;-88
2022/01/19 08:07:56;;;;;;;0.17;0.08;;;3.30;99.90;;;;;;5037794;28;20401;-89
2022/01/19 08:10:22;;;;;;;1.60;0.75;;;3.50;99.90;;;;;;5037839;28;20055;-88
2022/01/19 08:12:51;;;;;;;0.80;0.80;;;3.30;99.90;;;;;;5053864;28;20053;-88
2022/01/19 08:15:16;;;;;;;0.73;0.03;;;3.30;99.90;;;;;;5053994;28;20095;-88
2022/01/19 08:17:43;;;;;;;0.55;0.55;;;3.40;99.90;;;;;;5037657;28;20040;-89
2022/01/19 08:20:10;;;;;;;0.60;0.60;;;3.40;99.90;;;;;;5037276;28;20145;-88
2022/01/19 08:22:35;;;;;;;0.80;0.73;;;3.50;99.90;;;;;;5054341;28;20095;-89
2022/01/19 08:25:01;;;;;;;0.65;0.35;;;3.40;99.90;;;;;;5037392;28;20465;-89
2022/01/19 08:27:27;;;;;;;0.65;0.65;;;3.50;99.90;;;;;;5053701;28;20033;-88
2022/01/19 08:29:52;;;;;;;4.80;1.30;;;3.50;99.90;;;;;;5053956;28;20099;-88
2022/01/19 08:32:18;;;;;;;0.98;0.57;;;3.80;99.90;;;;;;5037052;28;20048;-89
2022/01/19 08:34:44;;;;;;;0.82;0.38;;;3.60;99.90;;;;;;5037269;28;20052;-88
2022/01/19 08:37:14;;;;;;;0.30;0.30;;;3.60;99.90;;;;;;5037096;28;20096;-89
2022/01/19 08:39:43;;;;;;;7.45;0.88;;;3.60;99.90;;;;;;5053919;28;20094;-89
2022/01/19 08:42:10;;;;;;;2.30;1.25;;;3.60;99.90;;;;;;5036166;28;20052;-88
2022/01/19 08:44:36;;;;;;;0.40;0.20;;;3.60;99.90;;;;;;5036494;28;20041;-89
2022/01/19 08:47:02;;;;;;;2.95;2.17;;;3.60;99.90;;;;;;5036333;28;20111;-89
2022/01/19 08:49:28;;;;;;;0.65;0.65;;;3.60;99.90;;;;;;5053444;28;20041;-89
2022/01/19 08:51:54;;;;;;;5.38;1.48;;;3.70;99.90;;;;;;5036777;28;20136;-89
2022/01/19 08:54:20;;;;;;;1.23;1.05;;;3.70;99.90;;;;;;5036508;28;20045;-89
2022/01/19 08:56:46;;;;;;;0.50;0.38;;;4.50;99.90;;;;;;5036495;28;20159;-90
2022/01/19 08:59:14;;;;;;;0.20;0.20;;;3.60;99.90;;;;;;5037048;28;20056;-89
2022/01/19 09:01:40;;;;;;;0.63;0.32;;;3.70;99.90;;;;;;5052856;28;20052;-89
2022/01/19 09:04:06;;;;;;;0.95;0.70;;;3.70;99.90;;;;;;5036433;28;20389;-90
2022/01/19 09:06:32;;;;;;;1.33;0.30;;;3.70;99.90;;;;;;5052712;28;20081;-89
2022/01/19 09:08:57;;;;;;;1.85;0.30;;;3.60;99.90;;;;;;5053145;28;20114;-89
2022/01/19 09:11:25;;;;;;;0.70;0.70;;;4.30;99.90;;;;;;5049856;28;20075;-89
2022/01/19 09:13:51;;;;;;;1.13;0.60;;;3.70;99.90;;;;;;5034639;28;20140;-90
2022/01/19 09:16:17;;;;;;;9.50;1.25;;;3.80;99.90;;;;;;5035311;28;20132;-89
2022/01/19 09:18:43;;;;;;;0.90;0.70;;;3.90;99.90;;;;;;5034364;28;20051;-89
2022/01/19 09:21:09;;;;;;;0.00;0.00;;;3.80;99.90;;;;;;5051072;28;20049;-89
2022/01/19 09:23:37;;;;;;;2.25;0.70;;;3.90;99.90;;;;;;5051035;28;20053;-89
2022/01/19 09:26:04;;;;;;;0.10;0.10;;;3.90;99.90;;;;;;5034382;28;20048;-89
2022/01/19 09:28:29;;;;;;;0.20;0.20;;;3.80;99.90;;;;;;5050958;28;20045;-89
2022/01/19 09:31:00;;;;;;;0.75;0.65;;;3.80;99.90;;;;;;5051769;28;20049;-89
2022/01/19 09:33:28;;;;;;;3.75;0.43;;;3.90;99.90;;;;;;5033856;28;20051;-89
2022/01/19 09:38:29;;;;;;;0.60;0.30;;;4.00;99.90;;;;;;5052630;28;20044;-89
2022/01/19 09:40:56;;;;;;;1.00;1.00;;;4.00;99.90;;;;;;5036146;28;20049;-89
2022/01/19 09:43:22;;;;;;;1.58;1.48;;;4.00;99.90;;;;;;5036078;28;20132;-89
2022/01/19 09:45:50;;;;;;;0.30;0.20;;;4.10;99.90;;;;;;5036588;28;20049;-89
2022/01/19 09:48:15;;;;;;;0.95;0.82;;;4.00;99.90;;;;;;5036043;28;20497;-88
2022/01/19 09:50:41;;;;;;;0.68;0.68;;;4.10;99.90;;;;;;5053067;28;20080;-89
2022/01/19 09:53:07;;;;;;;0.10;0.10;;;4.10;99.90;;;;;;5036053;28;20135;-89
2022/01/19 09:55:34;;;;;;;1.50;1.30;;;4.10;99.90;;;;;;5035767;28;20049;-89
2022/01/19 09:58:00;;;;;;;0.10;0.10;;;4.10;99.90;;;;;;5052931;28;20396;-89
2022/01/19 10:00:26;;;;;;;1.25;0.80;;;4.20;99.90;;;;;;5035823;28;20099;-89
2022/01/19 10:03:11;;;;;;;0.90;0.50;;;4.10;99.90;;;;;;5051223;28;20102;-88
2022/01/19 10:05:54;;;;;;;0.45;0.35;;;4.30;99.90;;;;;;5033803;28;20068;-88
2022/01/19 10:08:50;;;;;;;1.67;0.45;;;4.20;99.90;;;;;;5052739;28;20057;-88
2022/01/19 10:17:01;;;;;;;0.77;0.73;;;4.30;99.90;;;;;;4975435;28;20057;-89
2022/01/19 10:19:45;;;;;;;3.67;1.13;;;4.30;99.90;;;;;;4959764;28;20200;-89
2022/01/19 10:22:20;;;;;;;2.30;1.10;;;4.30;99.90;;;;;;4959496;28;20523;-88
2022/01/19 10:25:04;;;;;;;2.92;0.55;;;4.30;99.90;;;;;;4975501;28;20116;-89
2022/01/19 10:27:40;;;;;;;2.05;1.42;;;4.30;99.90;;;;;;4960465;28;20054;-88
2022/01/19 10:30:06;;;;;;;2.85;1.65;;;4.30;99.90;;;;;;4977428;28;20042;-88
2022/01/19 10:32:42;;;;;;;2.05;0.40;;;4.30;99.90;;;;;;4960071;28;20050;-88
2022/01/19 10:35:19;;;;;;;1.10;0.70;;;4.30;99.90;;;;;;4960365;28;20043;-88
2022/01/19 10:37:47;;;;;;;0.90;0.85;;;4.30;99.90;;;;;;4959684;28;20550;-88
2022/01/19 10:40:19;;;;;;;0.77;0.63;;;4.30;99.90;;;;;;4960304;28;20238;-88
2022/01/19 10:42:47;;;;;;;3.20;1.85;;;4.30;99.90;;;;;;4960557;28;20093;-88
2022/01/19 10:45:15;;;;;;;0.55;0.40;;;4.30;99.90;;;;;;4963604;28;20525;-89
2022/01/19 10:47:49;;;;;;;2.42;2.03;;;4.30;99.90;;;;;;4963359;28;20422;-88
2022/01/19 10:50:22;;;;;;;0.73;0.73;;;4.30;99.90;;;;;;4982721;28;20065;-89
2022/01/19 10:52:49;;;;;;;3.85;1.45;;;4.30;99.90;;;;;;5035581;28;20041;-88
2022/01/19 10:55:20;;;;;;;1.90;1.58;;;4.50;99.90;;;;;;5019198;28;20042;-88
2022/01/19 10:57:48;;;;;;;1.10;1.08;;;4.50;99.90;;;;;;5035322;28;20084;-88
2022/01/19 11:00:14;;;;;;;2.45;1.20;;;4.30;99.90;;;;;;5018991;28;20091;-88
2022/01/19 11:02:41;;;;;;;1.33;1.08;;;4.30;99.90;;;;;;5018820;28;20096;-88
2022/01/19 11:05:07;;;;;;;1.65;1.17;;;4.30;99.90;;;;;;5018680;28;20045;-88
2022/01/19 11:07:33;;;;;;;3.25;1.80;;;4.80;99.90;;;;;;5018933;28;20042;-88
2022/01/19 11:10:10;;;;;;;2.67;0.95;;;4.60;99.90;;;;;;5019082;28;20096;-88
2022/01/19 11:12:49;;;;;;;2.78;1.48;;;4.40;99.90;;;;;;5035793;28;20056;-88
2022/01/19 11:15:19;;;;;;;1.08;0.90;;;4.50;99.90;;;;;;5018290;28;20049;-88
2022/01/19 11:17:49;;;;;;;3.92;1.27;;;4.60;99.90;;;;;;5035377;28;20049;-88
2022/01/19 11:20:20;;;;;;;2.70;0.75;;;4.40;99.90;;;;;;5018890;28;20152;-89
2022/01/19 11:23:16;;;;;;;1.90;1.80;;;4.40;99.90;;;;;;5035328;28;20053;-88
2022/01/19 11:26:01;;;;;;;6.20;1.40;;;4.40;99.90;;;;;;5019319;28;20045;-89
2022/01/19 11:28:32;;;;;;;1.35;1.25;;;4.40;99.90;;;;;;5018902;28;20420;-89
2022/01/19 11:30:58;;;;;;;1.83;1.48;;;4.40;99.90;;;;;;5018735;28;20132;-88
2022/01/19 11:33:27;;;;;;;3.65;1.02;;;4.40;99.90;;;;;;5019198;28;20567;-89
2022/01/19 11:35:55;;;;;;;3.80;1.83;;;4.40;99.90;;;;;;5018507;28;20049;-88
2022/01/19 11:38:32;;;;;;;1.33;1.02;;;4.60;99.90;;;;;;5018495;28;20378;-89
2022/01/19 11:41:03;;;;;;;0.68;0.55;;;4.50;99.90;;;;;;5018748;28;20049;-89
2022/01/19 11:43:30;;;;;;;1.75;0.98;;;4.40;99.90;;;;;;5018249;28;20053;-89
2022/01/19 11:46:03;;;;;;;6.43;1.05;;;4.50;99.90;;;;;;5017650;28;20045;-88
2022/01/19 11:48:35;;;;;;;2.08;1.98;;;4.40;99.90;;;;;;5018098;28;20057;-88
2022/01/19 11:51:40;;;;;;;3.40;2.03;;;4.40;99.90;;;;;;5018483;28;20049;-89
2022/01/19 11:54:13;;;;;;;4.68;1.83;;;4.40;99.90;;;;;;5017398;28;20057;-89
2022/01/19 11:57:06;;;;;;;2.78;0.93;;;4.50;99.90;;;;;;5017120;28;20099;-88
2022/01/19 11:59:47;;;;;;;4.20;0.50;;;4.50;99.90;;;;;;5034830;28;20045;-88
2022/01/19 12:02:24;;;;;;;0.47;0.45;;;4.80;99.90;;;;;;5034279;28;20054;-88
2022/01/19 12:05:16;;;;;;;1.20;1.15;;;4.60;99.90;;;;;;5018481;28;20049;-88
2022/01/19 12:07:52;;;;;;;2.45;1.70;;;4.50;99.90;;;;;;5034602;28;20042;-88
2022/01/19 12:10:31;;;;;;;2.00;1.52;;;4.50;99.90;;;;;;5034019;28;20058;-88
2022/01/19 12:18:57;;;;;;;2.20;1.65;;;4.50;99.90;;;;;;5034213;28;20147;-87
2022/01/19 12:21:32;;;;;;;2.17;1.98;;;4.40;99.90;;;;;;5034926;28;20045;-89
2022/01/19 12:24:26;;;;;;;1.17;1.10;;;4.60;99.90;;;;;;5034184;28;20178;-89
2022/01/19 12:26:55;;;;;;;2.83;2.08;;;4.40;99.90;;;;;;5033595;28;20049;-89
2022/01/19 12:29:36;;;;;;;2.10;1.80;;;4.50;99.90;;;;;;5017273;28;20397;-87
2022/01/19 12:32:25;;;;;;;1.10;1.10;;;4.50;99.90;;;;;;5033784;28;20053;-87
2022/01/19 12:34:57;;;;;;;3.33;2.22;;;4.50;99.90;;;;;;5028508;28;20164;-87
2022/01/19 12:37:35;;;;;;;20.17;3.45;;;4.60;99.90;;;;;;5017326;28;20042;-87
2022/01/19 12:40:06;;;;;;;4.60;1.67;;;4.60;99.90;;;;;;5033518;28;20413;-87
2022/01/19 12:42:50;;;;;;;0.70;0.70;;;4.60;99.90;;;;;;5016835;28;20052;-87
2022/01/19 12:45:21;;;;;;;0.93;0.75;;;4.70;99.90;;;;;;5017508;28;20103;-87
2022/01/19 12:47:50;;;;;;;0.65;0.57;;;4.80;99.90;;;;;;5033853;28;20049;-89
2022/01/19 12:50:36;;;;;;;2.53;1.33;;;4.70;99.90;;;;;;5035098;28;20128;-89
2022/01/19 12:53:11;;;;;;;16.00;1.17;;;4.70;99.90;;;;;;5036852;28;20048;-89
2022/01/19 12:55:38;;;;;;;1.08;1.05;;;4.70;99.90;;;;;;5053674;28;20049;-90
2022/01/19 12:58:28;;;;;;;0.75;0.73;;;4.70;99.90;;;;;;5036751;28;20048;-89
2022/01/19 13:00:58;;;;;;;1.17;0.40;;;4.70;99.90;;;;;;5037020;28;20103;-89
2022/01/19 13:03:39;;;;;;;1.77;1.42;;;4.70;99.90;;;;;;5036720;28;20098;-89
2022/01/19 13:06:13;;;;;;;2.03;1.60;;;4.70;99.90;;;;;;5036470;28;20045;-89
2022/01/19 13:09:01;;;;;;;0.90;0.75;;;4.70;99.90;;;;;;5036578;28;20400;-89
2022/01/19 13:11:38;;;;;;;2.58;1.83;;;4.80;99.90;;;;;;5053128;28;20116;-87
2022/01/19 13:14:07;;;;;;;1.92;1.02;;;4.70;99.90;;;;;;5036713;28;20400;-87
2022/01/19 13:16:37;;;;;;;4.45;2.10;;;4.80;99.90;;;;;;5053020;28;20516;-87
2022/01/19 13:19:06;;;;;;;3.30;1.13;;;4.80;99.90;;;;;;5036262;28;20103;-87
2022/01/19 13:21:33;;;;;;;2.83;1.92;;;4.80;99.90;;;;;;5052653;28;20068;-87
2022/01/19 13:24:06;;;;;;;0.93;0.80;;;4.80;99.90;;;;;;5036021;28;20503;-87
2022/01/19 13:26:47;;;;;;;1.10;1.10;;;4.80;99.90;;;;;;5052963;28;20045;-87
2022/01/19 13:29:21;;;;;;;2.47;1.45;;;4.80;99.90;;;;;;5053057;28;20049;-88
2022/01/19 13:31:56;;;;;;;2.10;1.17;;;4.80;99.90;;;;;;5035390;28;20072;-87
2022/01/19 13:34:21;;;;;;;0.80;0.65;;;4.80;99.90;;;;;;5052631;28;20473;-87
2022/01/19 13:36:53;;;;;;;2.92;2.05;;;4.80;99.90;;;;;;5035984;28;20094;-87
2022/01/19 13:39:24;;;;;;;3.90;2.15;;;4.80;99.90;;;;;;5035649;28;20049;-87
2022/01/19 13:41:52;;;;;;;3.28;1.48;;;4.80;99.90;;;;;;5036218;28;20080;-87
2022/01/19 13:44:23;;;;;;;1.23;1.13;;;4.90;99.90;;;;;;5036846;28;20158;-87
2022/01/19 13:46:49;;;;;;;1.45;1.40;;;4.90;99.90;;;;;;5036363;28;20080;-86
2022/01/19 13:49:14;;;;;;;1.95;1.27;;;4.90;99.90;;;;;;5036473;28;20088;-86
2022/01/19 13:51:43;;;;;;;1.40;1.25;;;5.00;99.90;;;;;;5036814;28;20377;-87
2022/01/19 13:54:09;;;;;;;1.23;1.10;;;5.00;99.90;;;;;;5036302;28;20037;-87
2022/01/19 13:56:38;;;;;;;1.45;1.30;;;5.00;99.90;;;;;;5036728;28;20048;-87
2022/01/19 13:59:17;;;;;;;2.83;2.10;;;5.00;99.90;;;;;;5053429;28;20040;-87
2022/01/19 14:01:56;;;;;;;0.82;0.75;;;5.00;99.90;;;;;;5037099;28;20404;-87
2022/01/19 14:04:21;;;;;;;4.53;0.70;;;5.00;99.90;;;;;;5036785;28;20048;-87
2022/01/19 14:06:49;;;;;;;0.85;0.80;;;5.00;99.90;;;;;;5036345;28;20387;-88
2022/01/19 14:09:19;;;;;;;4.18;3.65;;;5.00;99.90;;;;;;5052642;28;20049;-86
2022/01/19 14:11:56;;;;;;;1.55;1.05;;;5.00;99.90;;;;;;5036155;28;20045;-87
2022/01/19 14:14:25;;;;;;;2.63;1.70;;;5.00;99.90;;;;;;5036746;28;20086;-87
2022/01/19 14:16:53;;;;;;;1.90;1.77;;;5.00;99.90;;;;;;5036506;28;20045;-87
2022/01/19 14:19:41;;;;;;;3.60;1.35;;;5.10;99.90;;;;;;5038378;28;20404;-87
2022/01/19 14:22:11;;;;;;;8.02;2.70;;;5.10;99.90;;;;;;5039125;28;20059;-87
2022/01/19 14:24:40;;;;;;;3.33;1.67;;;5.10;99.90;;;;;;5056516;28;20044;-86
2022/01/19 14:27:07;;;;;;;2.53;1.90;;;5.10;99.90;;;;;;5038852;28;20455;-86
2022/01/19 14:29:33;;;;;;;1.27;1.10;;;5.10;99.90;;;;;;5039410;28;20057;-86
2022/01/19 14:32:00;;;;;;;3.30;1.95;;;5.10;99.90;;;;;;5055643;28;20064;-86
2022/01/19 14:34:43;;;;;;;0.40;0.40;;;5.10;99.90;;;;;;5038881;28;20072;-86
2022/01/19 14:37:12;;;;;;;6.47;3.88;;;5.10;99.90;;;;;;5057285;28;20102;-86
2022/01/19 14:39:59;;;;;;;5.88;1.75;;;5.10;99.90;;;;;;5039336;28;20397;-86
2022/01/19 14:42:30;;;;;;;5.22;1.30;;;5.10;99.90;;;;;;5056530;28;20423;-86
2022/01/19 14:45:20;;;;;;;1.98;1.35;;;5.10;99.90;;;;;;5039531;28;20057;-85
2022/01/19 14:47:46;;;;;;;2.95;1.40;;;5.10;99.90;;;;;;5040379;28;20049;-86